createdAt,value
2023-04-16T00:00:27.908Z,94362.00
2023-04-16T00:01:27.874Z,94360.00
2023-04-16T00:02:28.033Z,94358.00
2023-04-16T00:03:28.052Z,94360.00
2023-04-16T00:04:27.964Z,94366.00
2023-04-16T00:05:27.852Z,94366.00
2023-04-16T00:06:27.839Z,94366.00
2023-04-16T00:07:27.819Z,94366.00
2023-04-16T00:08:27.872Z,94368.00
2023-04-16T00:09:27.821Z,94378.00
2023-04-16T00:10:27.808Z,94376.00
2023-04-16T00:11:27.827Z,94378.00
2023-04-16T00:12:27.827Z,94378.00
2023-04-16T00:13:27.798Z,94376.00
2023-04-16T00:14:27.771Z,94378.00
2023-04-16T00:15:27.794Z,94378.00
2023-04-16T00:16:27.905Z,94378.00
2023-04-16T00:17:27.804Z,94376.00
2023-04-16T00:18:27.754Z,94376.00
2023-04-16T00:19:27.757Z,94378.00
2023-04-16T00:20:27.772Z,94380.00
2023-04-16T00:21:27.884Z,94378.00
2023-04-16T00:22:27.720Z,94378.00
2023-04-16T00:23:27.796Z,94376.00
2023-04-16T00:24:27.721Z,94376.00
2023-04-16T00:25:27.722Z,94378.00
2023-04-16T00:26:27.717Z,94378.00
2023-04-16T00:27:27.686Z,94368.00
2023-04-16T00:28:27.735Z,94378.00
2023-04-16T00:29:27.701Z,94368.00
2023-04-16T00:30:27.696Z,94376.00
2023-04-16T00:31:27.741Z,94376.00
2023-04-16T00:32:27.679Z,94378.00
2023-04-16T00:33:27.695Z,94380.00
2023-04-16T00:34:27.656Z,94380.00
2023-04-16T00:35:27.637Z,94380.00
2023-04-16T00:36:27.687Z,94380.00
2023-04-16T00:37:27.631Z,94384.00
2023-04-16T00:38:27.646Z,94382.00
2023-04-16T00:39:27.620Z,94386.00
2023-04-16T00:40:27.599Z,94380.00
2023-04-16T00:41:27.598Z,94386.00
2023-04-16T00:42:27.654Z,94380.00
2023-04-16T00:43:27.597Z,94386.00
2023-04-16T00:44:27.620Z,94382.00
2023-04-16T00:45:27.588Z,94384.00
2023-04-16T00:46:27.648Z,94384.00
2023-04-16T00:47:27.648Z,94386.00
2023-04-16T00:48:28.379Z,94388.00
2023-04-16T00:49:27.555Z,94388.00
2023-04-16T00:50:27.554Z,94388.00
2023-04-16T00:51:27.558Z,94388.00
2023-04-16T00:52:27.548Z,94390.00
2023-04-16T00:53:27.530Z,94390.00
2023-04-16T00:54:27.493Z,94390.00
2023-04-16T00:55:27.501Z,94390.00
2023-04-16T00:56:27.491Z,94390.00
2023-04-16T00:57:27.487Z,94390.00
2023-04-16T00:58:27.527Z,94390.00
2023-04-16T00:59:27.460Z,94390.00
2023-04-16T01:00:27.484Z,94390.00
2023-04-16T01:01:27.482Z,94390.00
2023-04-16T01:02:27.607Z,94390.00
2023-04-16T01:03:27.559Z,94390.00
2023-04-16T01:04:27.455Z,94392.00
2023-04-16T01:05:27.440Z,94392.00
2023-04-16T01:06:27.466Z,94392.00
2023-04-16T01:07:27.410Z,94394.00
2023-04-16T01:08:27.418Z,94392.00
2023-04-16T01:09:27.417Z,94390.00
2023-04-16T01:10:27.388Z,94390.00
2023-04-16T01:11:27.375Z,94392.00
2023-04-16T01:12:27.360Z,94390.00
2023-04-16T01:13:27.383Z,94392.00
2023-04-16T01:14:27.379Z,94390.00
2023-04-16T01:15:27.369Z,94388.00
2023-04-16T01:16:27.432Z,94388.00
2023-04-16T01:17:27.374Z,94390.00
2023-04-16T01:18:27.371Z,94390.00
2023-04-16T01:19:27.320Z,94392.00
2023-04-16T01:20:27.317Z,94390.00
2023-04-16T01:21:27.346Z,94392.00
2023-04-16T01:22:27.309Z,94394.00
2023-04-16T01:23:27.316Z,94394.00
2023-04-16T01:24:27.322Z,94392.00
2023-04-16T01:25:27.278Z,94394.00
2023-04-16T01:26:27.267Z,94392.00
2023-04-16T01:27:27.291Z,94394.00
2023-04-16T01:28:27.261Z,94392.00
2023-04-16T01:29:27.253Z,94392.00
2023-04-16T01:30:27.246Z,94396.00
2023-04-16T01:31:27.277Z,94394.00
2023-04-16T01:32:27.256Z,94392.00
2023-04-16T01:33:27.252Z,94392.00
2023-04-16T01:34:27.231Z,94394.00
2023-04-16T01:35:27.237Z,94394.00
2023-04-16T01:36:27.206Z,94396.00
2023-04-16T01:37:27.231Z,94396.00
2023-04-16T01:38:27.190Z,94394.00
2023-04-16T01:39:27.190Z,94396.00
2023-04-16T01:40:27.229Z,94398.00
2023-04-16T01:41:27.214Z,94396.00
2023-04-16T01:42:27.186Z,94396.00
2023-04-16T01:43:27.171Z,94398.00
2023-04-16T01:44:27.181Z,94400.00
2023-04-16T01:45:27.142Z,94398.00
2023-04-16T01:46:27.179Z,94400.00
2023-04-16T01:47:27.149Z,94402.00
2023-04-16T01:48:27.145Z,94402.00
2023-04-16T01:49:27.110Z,94404.00
2023-04-16T01:50:27.163Z,94404.00
2023-04-16T01:51:27.106Z,94406.00
2023-04-16T01:52:27.098Z,94406.00
2023-04-16T01:53:27.086Z,94406.00
2023-04-16T01:54:27.095Z,94407.00
2023-04-16T01:55:27.161Z,94407.00
2023-04-16T01:56:27.171Z,94407.00
2023-04-16T01:57:27.143Z,94407.00
2023-04-16T01:58:27.185Z,94406.00
2023-04-16T01:59:27.194Z,94406.00
2023-04-16T02:00:27.186Z,94407.00
2023-04-16T02:01:27.229Z,94407.00
2023-04-16T02:02:27.478Z,94407.00
2023-04-16T02:03:27.428Z,94407.00
2023-04-16T02:04:27.272Z,94407.00
2023-04-16T02:05:27.288Z,94409.00
2023-04-16T02:06:27.299Z,94409.00
2023-04-16T02:07:27.292Z,94411.00
2023-04-16T02:08:27.341Z,94411.00
2023-04-16T02:09:27.324Z,94411.00
2023-04-16T02:10:27.363Z,94409.00
2023-04-16T02:11:27.338Z,94413.00
2023-04-16T02:12:27.368Z,94411.00
2023-04-16T02:13:27.411Z,94413.00
2023-04-16T02:14:27.442Z,94413.00
2023-04-16T02:15:27.436Z,94413.00
2023-04-16T02:16:27.453Z,94413.00
2023-04-16T02:17:27.521Z,94413.00
2023-04-16T02:18:27.453Z,94413.00
2023-04-16T02:19:27.483Z,94417.00
2023-04-16T02:20:27.533Z,94415.00
2023-04-16T02:21:27.545Z,94415.00
2023-04-16T02:22:27.624Z,94415.00
2023-04-16T02:23:27.586Z,94417.00
2023-04-16T02:24:27.591Z,94415.00
2023-04-16T02:25:27.581Z,94417.00
2023-04-16T02:26:27.590Z,94417.00
2023-04-16T02:27:27.616Z,94417.00
2023-04-16T02:28:27.622Z,94419.00
2023-04-16T02:29:27.675Z,94417.00
2023-04-16T02:30:27.632Z,94419.00
2023-04-16T02:31:27.713Z,94417.00
2023-04-16T02:32:27.690Z,94419.00
2023-04-16T02:33:27.727Z,94419.00
2023-04-16T02:34:27.715Z,94417.00
2023-04-16T02:35:27.715Z,94419.00
2023-04-16T02:36:27.750Z,94421.00
2023-04-16T02:37:27.753Z,94419.00
2023-04-16T02:38:27.840Z,94421.00
2023-04-16T02:39:27.794Z,94421.00
2023-04-16T02:40:27.803Z,94421.00
2023-04-16T02:41:27.838Z,94423.00
2023-04-16T02:42:27.862Z,94423.00
2023-04-16T02:43:27.858Z,94423.00
2023-04-16T02:44:27.909Z,94425.00
2023-04-16T02:45:27.902Z,94425.00
2023-04-16T02:46:28.004Z,94425.00
2023-04-16T02:47:27.954Z,94427.00
2023-04-16T02:48:27.942Z,94429.00
2023-04-16T02:49:27.942Z,94427.00
2023-04-16T02:50:27.968Z,94429.00
2023-04-16T02:51:27.993Z,94431.00
2023-04-16T02:52:28.003Z,94431.00
2023-04-16T02:53:28.074Z,94431.00
2023-04-16T02:54:28.068Z,94433.00
2023-04-16T02:55:28.050Z,94431.00
2023-04-16T02:56:28.079Z,94431.00
2023-04-16T02:57:28.149Z,94431.00
2023-04-16T02:58:28.222Z,94431.00
2023-04-16T02:59:28.125Z,94433.00
2023-04-16T03:00:28.148Z,94433.00
2023-04-16T03:01:28.204Z,94433.00
2023-04-16T03:02:28.266Z,94433.00
2023-04-16T03:03:28.307Z,94435.00
2023-04-16T03:04:28.249Z,94435.00
2023-04-16T03:05:28.286Z,94433.00
2023-04-16T03:06:28.300Z,94435.00
2023-04-16T03:07:28.308Z,94437.00
2023-04-16T03:08:28.343Z,94435.00
2023-04-16T03:09:28.358Z,94435.00
2023-04-16T03:10:28.382Z,94437.00
2023-04-16T03:11:28.408Z,94437.00
2023-04-16T03:12:28.409Z,94439.00
2023-04-16T03:13:28.426Z,94439.00
2023-04-16T03:14:28.427Z,94437.00
2023-04-16T03:15:28.506Z,94439.00
2023-04-16T03:16:28.482Z,94439.00
2023-04-16T03:17:28.537Z,94441.00
2023-04-16T03:18:28.525Z,94441.00
2023-04-16T03:19:28.564Z,94439.00
2023-04-16T03:20:28.563Z,94441.00
2023-04-16T03:21:28.589Z,94441.00
2023-04-16T03:22:28.613Z,94443.00
2023-04-16T03:23:28.886Z,94443.00
2023-04-16T03:24:28.647Z,94445.00
2023-04-16T03:25:28.649Z,94447.00
2023-04-16T03:26:28.676Z,94447.00
2023-04-16T03:27:28.713Z,94447.00
2023-04-16T03:28:28.778Z,94447.00
2023-04-16T03:29:28.681Z,94447.00
2023-04-16T03:30:28.722Z,94445.00
2023-04-16T03:31:28.761Z,94443.00
2023-04-16T03:32:28.767Z,94445.00
2023-04-16T03:33:28.856Z,94447.00
2023-04-16T03:34:28.758Z,94447.00
2023-04-16T03:35:28.790Z,94447.00
2023-04-16T03:36:28.880Z,94447.00
2023-04-16T03:37:28.835Z,94447.00
2023-04-16T03:38:28.903Z,94447.00
2023-04-16T03:39:28.923Z,94445.00
2023-04-16T03:40:28.902Z,94447.00
2023-04-16T03:41:28.920Z,94449.00
2023-04-16T03:42:28.928Z,94447.00
2023-04-16T03:43:28.952Z,94447.00
2023-04-16T03:44:28.972Z,94447.00
2023-04-16T03:45:28.993Z,94449.00
2023-04-16T03:46:29.030Z,94447.00
2023-04-16T03:47:29.052Z,94449.00
2023-04-16T03:48:29.060Z,94449.00
2023-04-16T03:49:29.069Z,94453.00
2023-04-16T03:50:29.088Z,94451.00
2023-04-16T03:51:29.095Z,94451.00
2023-04-16T03:52:29.125Z,94454.00
2023-04-16T03:53:29.200Z,94456.00
2023-04-16T03:54:29.143Z,94454.00
2023-04-16T03:55:29.183Z,94454.00
2023-04-16T03:56:29.203Z,94456.00
2023-04-16T03:57:29.205Z,94456.00
2023-04-16T03:58:29.443Z,94456.00
2023-04-16T03:59:29.245Z,94456.00
2023-04-16T04:00:29.317Z,94456.00
2023-04-16T04:01:29.293Z,94462.00
2023-04-16T04:02:29.401Z,94458.00
2023-04-16T04:03:29.622Z,94458.00
2023-04-16T04:04:29.441Z,94458.00
2023-04-16T04:05:29.360Z,94458.00
2023-04-16T04:06:29.393Z,94460.00
2023-04-16T04:07:29.480Z,94460.00
2023-04-16T04:08:29.462Z,94460.00
2023-04-16T04:09:29.488Z,94462.00
2023-04-16T04:10:29.482Z,94464.00
2023-04-16T04:11:29.531Z,94462.00
2023-04-16T04:12:29.531Z,94460.00
2023-04-16T04:13:29.612Z,94464.00
2023-04-16T04:14:29.584Z,94464.00
2023-04-16T04:15:29.642Z,94464.00
2023-04-16T04:16:29.653Z,94468.00
2023-04-16T04:17:29.647Z,94468.00
2023-04-16T04:18:29.662Z,94472.00
2023-04-16T04:19:29.674Z,94474.00
2023-04-16T04:20:30.452Z,94474.00
2023-04-16T04:21:29.700Z,94472.00
2023-04-16T04:22:29.771Z,94472.00
2023-04-16T04:23:29.790Z,94468.00
2023-04-16T04:24:29.771Z,94472.00
2023-04-16T04:25:29.834Z,94468.00
2023-04-16T04:26:29.918Z,94470.00
2023-04-16T04:27:29.874Z,94472.00
2023-04-16T04:28:29.882Z,94472.00
2023-04-16T04:29:29.896Z,94474.00
2023-04-16T04:30:29.921Z,94476.00
2023-04-16T04:31:29.979Z,94478.00
2023-04-16T04:32:30.018Z,94482.00
2023-04-16T04:33:30.036Z,94480.00
2023-04-16T04:34:30.010Z,94480.00
2023-04-16T04:35:30.056Z,94478.00
2023-04-16T04:36:30.050Z,94480.00
2023-04-16T04:37:30.101Z,94478.00
2023-04-16T04:38:30.119Z,94478.00
2023-04-16T04:39:30.130Z,94480.00
2023-04-16T04:40:30.157Z,94480.00
2023-04-16T04:41:30.198Z,94482.00
2023-04-16T04:42:30.246Z,94486.00
2023-04-16T04:43:30.312Z,94484.00
2023-04-16T04:44:30.267Z,94486.00
2023-04-16T04:45:31.933Z,94490.00
2023-04-16T04:46:30.316Z,94492.00
2023-04-16T04:47:30.363Z,94494.00
2023-04-16T04:48:30.485Z,94494.00
2023-04-16T04:49:30.390Z,94496.00
2023-04-16T04:50:30.390Z,94494.00
2023-04-16T04:51:30.414Z,94496.00
2023-04-16T04:52:30.472Z,94496.00
2023-04-16T04:53:30.501Z,94496.00
2023-04-16T04:54:30.505Z,94500.00
2023-04-16T04:55:30.530Z,94500.00
2023-04-16T04:56:30.558Z,94498.00
2023-04-16T04:57:30.566Z,94498.00
2023-04-16T04:58:30.597Z,94498.00
2023-04-16T04:59:30.659Z,94500.00
2023-04-16T05:00:30.631Z,94501.00
2023-04-16T05:01:30.675Z,94501.00
2023-04-16T05:02:30.768Z,94500.00
2023-04-16T05:03:30.805Z,94500.00
2023-04-16T05:04:30.745Z,94503.00
2023-04-16T05:05:30.772Z,94500.00
2023-04-16T05:06:30.777Z,94500.00
2023-04-16T05:07:30.810Z,94500.00
2023-04-16T05:08:30.841Z,94500.00
2023-04-16T05:09:31.061Z,94501.00
2023-04-16T05:10:30.866Z,94500.00
2023-04-16T05:11:30.885Z,94501.00
2023-04-16T05:12:30.905Z,94501.00
2023-04-16T05:13:30.934Z,94501.00
2023-04-16T05:14:30.948Z,94505.00
2023-04-16T05:15:30.974Z,94505.00
2023-04-16T05:16:31.070Z,94507.00
2023-04-16T05:17:31.084Z,94505.00
2023-04-16T05:18:31.073Z,94509.00
2023-04-16T05:19:31.093Z,94509.00
2023-04-16T05:20:31.108Z,94511.00
2023-04-16T05:21:31.147Z,94513.00
2023-04-16T05:22:31.147Z,94515.00
2023-04-16T05:23:31.164Z,94515.00
2023-04-16T05:24:31.193Z,94517.00
2023-04-16T05:25:31.192Z,94517.00
2023-04-16T05:26:31.227Z,94519.00
2023-04-16T05:27:31.242Z,94521.00
2023-04-16T05:28:31.300Z,94523.00
2023-04-16T05:29:31.321Z,94525.00
2023-04-16T05:30:31.455Z,94525.00
2023-04-16T05:31:31.357Z,94529.00
2023-04-16T05:32:31.393Z,94529.00
2023-04-16T05:33:31.397Z,94529.00
2023-04-16T05:34:31.407Z,94533.00
2023-04-16T05:35:31.431Z,94533.00
2023-04-16T05:36:31.452Z,94535.00
2023-04-16T05:37:31.475Z,94537.00
2023-04-16T05:38:31.539Z,94535.00
2023-04-16T05:39:31.614Z,94539.00
2023-04-16T05:40:31.535Z,94537.00
2023-04-16T05:41:31.566Z,94541.00
2023-04-16T05:42:31.627Z,94543.00
2023-04-16T05:43:31.624Z,94543.00
2023-04-16T05:44:31.681Z,94545.00
2023-04-16T05:45:31.671Z,94543.00
2023-04-16T05:46:31.714Z,94545.00
2023-04-16T05:47:31.748Z,94545.00
2023-04-16T05:48:31.759Z,94545.00
2023-04-16T05:49:31.797Z,94545.00
2023-04-16T05:50:31.796Z,94545.00
2023-04-16T05:51:31.820Z,94549.00
2023-04-16T05:52:31.849Z,94549.00
2023-04-16T05:53:31.867Z,94549.00
2023-04-16T05:54:31.878Z,94549.00
2023-04-16T05:55:31.891Z,94547.00
2023-04-16T05:56:31.972Z,94547.00
2023-04-16T05:57:31.944Z,94547.00
2023-04-16T05:58:32.933Z,94547.00
2023-04-16T05:59:32.045Z,94551.00
2023-04-16T06:00:31.997Z,94551.00
2023-04-16T06:01:34.263Z,94553.00
2023-04-16T06:02:32.198Z,94551.00
2023-04-16T06:03:32.155Z,94553.00
2023-04-16T06:04:32.128Z,94555.00
2023-04-16T06:05:32.172Z,94556.00
2023-04-16T06:06:32.144Z,94555.00
2023-04-16T06:07:32.163Z,94556.00
2023-04-16T06:08:32.225Z,94556.00
2023-04-16T06:09:32.229Z,94558.00
2023-04-16T06:10:32.242Z,94560.00
2023-04-16T06:11:32.918Z,94562.00
2023-04-16T06:12:32.258Z,94562.00
2023-04-16T06:13:32.280Z,94564.00
2023-04-16T06:14:32.317Z,94562.00
2023-04-16T06:15:32.377Z,94562.00
2023-04-16T06:16:32.402Z,94562.00
2023-04-16T06:17:32.452Z,94564.00
2023-04-16T06:18:32.428Z,94564.00
2023-04-16T06:19:32.454Z,94566.00
2023-04-16T06:20:32.463Z,94566.00
2023-04-16T06:21:32.475Z,94564.00
2023-04-16T06:22:32.501Z,94568.00
2023-04-16T06:23:32.515Z,94566.00
2023-04-16T06:24:32.552Z,94566.00
2023-04-16T06:25:32.599Z,94568.00
2023-04-16T06:26:32.593Z,94568.00
2023-04-16T06:27:32.611Z,94568.00
2023-04-16T06:28:32.658Z,94570.00
2023-04-16T06:29:40.628Z,94570.00
2023-04-16T06:30:33.665Z,94570.00
2023-04-16T06:31:32.744Z,94572.00
2023-04-16T06:32:32.676Z,94572.00
2023-04-16T06:33:32.650Z,94570.00
2023-04-16T06:34:32.639Z,94572.00
2023-04-16T06:35:32.615Z,94574.00
2023-04-16T06:36:32.607Z,94576.00
2023-04-16T06:37:32.619Z,94576.00
2023-04-16T06:38:32.636Z,94576.00
2023-04-16T06:39:32.627Z,94576.00
2023-04-16T06:40:32.609Z,94574.00
2023-04-16T06:41:32.596Z,94578.00
2023-04-16T06:42:32.605Z,94574.00
2023-04-16T06:43:32.577Z,94574.00
2023-04-16T06:44:32.609Z,94574.00
2023-04-16T06:45:32.567Z,94572.00
2023-04-16T06:46:32.640Z,94572.00
2023-04-16T06:47:32.558Z,94572.00
2023-04-16T06:48:32.521Z,94572.00
2023-04-16T06:49:32.533Z,94574.00
2023-04-16T06:50:32.550Z,94574.00
2023-04-16T06:51:32.519Z,94570.00
2023-04-16T06:52:32.550Z,94572.00
2023-04-16T06:53:32.585Z,94572.00
2023-04-16T06:54:32.566Z,94572.00
2023-04-16T06:55:33.472Z,94574.00
2023-04-16T06:56:32.610Z,94570.00
2023-04-16T06:57:32.651Z,94570.00
2023-04-16T06:58:32.646Z,94570.00
2023-04-16T06:59:32.695Z,94568.00
2023-04-16T07:00:32.717Z,94570.00
2023-04-16T07:01:32.753Z,94568.00
2023-04-16T07:02:32.950Z,94568.00
2023-04-16T07:03:32.944Z,94568.00
2023-04-16T07:04:32.832Z,94566.00
2023-04-16T07:05:32.822Z,94570.00
2023-04-16T07:06:32.852Z,94568.00
2023-04-16T07:07:32.883Z,94568.00
2023-04-16T07:08:32.910Z,94566.00
2023-04-16T07:09:32.901Z,94566.00
2023-04-16T07:10:32.945Z,94568.00
2023-04-16T07:11:32.946Z,94568.00
2023-04-16T07:12:32.967Z,94570.00
2023-04-16T07:13:32.978Z,94568.00
2023-04-16T07:14:33.033Z,94568.00
2023-04-16T07:15:33.052Z,94568.00
2023-04-16T07:16:33.132Z,94570.00
2023-04-16T07:17:33.072Z,94570.00
2023-04-16T07:18:33.084Z,94570.00
2023-04-16T07:19:33.095Z,94570.00
2023-04-16T07:20:33.133Z,94570.00
2023-04-16T07:21:33.126Z,94572.00
2023-04-16T07:22:33.181Z,94570.00
2023-04-16T07:23:33.192Z,94572.00
2023-04-16T07:24:33.223Z,94572.00
2023-04-16T07:25:33.257Z,94574.00
2023-04-16T07:26:33.228Z,94574.00
2023-04-16T07:27:33.248Z,94574.00
2023-04-16T07:28:33.284Z,94574.00
2023-04-16T07:29:33.303Z,94574.00
2023-04-16T07:30:33.305Z,94574.00
2023-04-16T07:31:33.376Z,94574.00
2023-04-16T07:32:33.439Z,94576.00
2023-04-16T07:33:33.377Z,94576.00
2023-04-16T07:34:33.419Z,94578.00
2023-04-16T07:35:33.475Z,94578.00
2023-04-16T07:36:33.454Z,94580.00
2023-04-16T07:37:33.497Z,94580.00
2023-04-16T07:38:33.490Z,94582.00
2023-04-16T07:39:33.530Z,94582.00
2023-04-16T07:40:33.554Z,94584.00
2023-04-16T07:41:33.563Z,94582.00
2023-04-16T07:42:33.562Z,94590.00
2023-04-16T07:43:33.598Z,94586.00
2023-04-16T07:44:33.614Z,94590.00
2023-04-16T07:45:33.666Z,94590.00
2023-04-16T07:46:45.620Z,94588.00
2023-04-16T07:47:34.652Z,94588.00
2023-04-16T07:48:33.663Z,94586.00
2023-04-16T07:49:33.641Z,94586.00
2023-04-16T07:50:33.616Z,94586.00
2023-04-16T07:51:33.642Z,94586.00
2023-04-16T07:52:33.605Z,94586.00
2023-04-16T07:53:33.618Z,94586.00
2023-04-16T07:54:33.588Z,94588.00
2023-04-16T07:55:33.580Z,94590.00
2023-04-16T07:56:33.586Z,94592.00
2023-04-16T07:57:33.590Z,94592.00
2023-04-16T07:58:33.554Z,94592.00
2023-04-16T07:59:33.582Z,94592.00
2023-04-16T08:00:33.555Z,94594.00
2023-04-16T08:01:33.540Z,94592.00
2023-04-16T08:02:33.669Z,94590.00
2023-04-16T08:03:33.812Z,94592.00
2023-04-16T08:04:33.705Z,94594.00
2023-04-16T08:05:33.522Z,94594.00
2023-04-16T08:06:33.513Z,94596.00
2023-04-16T08:07:34.796Z,94598.00
2023-04-16T08:08:33.495Z,94598.00
2023-04-16T08:09:33.485Z,94600.00
2023-04-16T08:10:33.508Z,94600.00
2023-04-16T08:11:33.539Z,94603.00
2023-04-16T08:12:33.554Z,94602.00
2023-04-16T08:13:33.853Z,94605.00
2023-04-16T08:14:33.572Z,94605.00
2023-04-16T08:15:33.674Z,94607.00
2023-04-16T08:16:33.631Z,94607.00
2023-04-16T08:17:33.693Z,94609.00
2023-04-16T08:18:33.705Z,94607.00
2023-04-16T08:19:33.712Z,94611.00
2023-04-16T08:20:33.713Z,94611.00
2023-04-16T08:21:33.732Z,94615.00
2023-04-16T08:22:33.764Z,94617.00
2023-04-16T08:23:33.829Z,94619.00
2023-04-16T08:24:33.781Z,94621.00
2023-04-16T08:25:33.787Z,94621.00
2023-04-16T08:26:33.835Z,94623.00
2023-04-16T08:27:33.846Z,94625.00
2023-04-16T08:28:33.856Z,94625.00
2023-04-16T08:29:33.872Z,94625.00
2023-04-16T08:30:33.914Z,94633.00
2023-04-16T08:31:33.937Z,94633.00
2023-04-16T08:32:33.953Z,94633.00
2023-04-16T08:33:33.952Z,94635.00
2023-04-16T08:34:33.984Z,94635.00
2023-04-16T08:35:33.988Z,94637.00
2023-04-16T08:36:34.040Z,94639.00
2023-04-16T08:37:34.033Z,94637.00
2023-04-16T08:38:34.061Z,94639.00
2023-04-16T08:39:34.059Z,94641.00
2023-04-16T08:40:34.097Z,94641.00
2023-04-16T08:41:34.095Z,94643.00
2023-04-16T08:42:34.126Z,94641.00
2023-04-16T08:43:34.201Z,94641.00
2023-04-16T08:44:34.155Z,94641.00
2023-04-16T08:45:34.173Z,94641.00
2023-04-16T08:46:34.235Z,94643.00
2023-04-16T08:47:34.264Z,94643.00
2023-04-16T08:48:34.533Z,94645.00
2023-04-16T08:49:34.252Z,94645.00
2023-04-16T08:50:34.286Z,94645.00
2023-04-16T08:51:34.293Z,94645.00
2023-04-16T08:52:34.322Z,94645.00
2023-04-16T08:53:34.327Z,94645.00
2023-04-16T08:54:34.386Z,94645.00
2023-04-16T08:55:34.358Z,94647.00
2023-04-16T08:56:34.401Z,94647.00
2023-04-16T08:57:34.412Z,94648.00
2023-04-16T08:58:34.467Z,94650.00
2023-04-16T08:59:34.442Z,94650.00
2023-04-16T09:00:34.462Z,94652.00
2023-04-16T09:01:34.561Z,94652.00
2023-04-16T09:02:34.788Z,94654.00
2023-04-16T09:03:36.516Z,94656.00
2023-04-16T09:04:34.688Z,94656.00
2023-04-16T09:05:34.562Z,94656.00
2023-04-16T09:06:34.610Z,94658.00
2023-04-16T09:07:34.595Z,94656.00
2023-04-16T09:08:34.656Z,94658.00
2023-04-16T09:09:34.731Z,94656.00
2023-04-16T09:10:34.700Z,94658.00
2023-04-16T09:11:34.675Z,94660.00
2023-04-16T09:12:34.713Z,94656.00
2023-04-16T09:13:34.740Z,94656.00
2023-04-16T09:14:34.756Z,94658.00
2023-04-16T09:15:35.301Z,94660.00
2023-04-16T09:16:34.871Z,94660.00
2023-04-16T09:17:34.925Z,94660.00
2023-04-16T09:18:34.907Z,94660.00
2023-04-16T09:19:34.881Z,94658.00
2023-04-16T09:20:34.915Z,94660.00
2023-04-16T09:21:34.960Z,94662.00
2023-04-16T09:22:34.973Z,94658.00
2023-04-16T09:23:35.009Z,94660.00
2023-04-16T09:24:35.053Z,94658.00
2023-04-16T09:25:35.083Z,94656.00
2023-04-16T09:26:35.102Z,94656.00
2023-04-16T09:27:35.123Z,94658.00
2023-04-16T09:28:35.546Z,94656.00
2023-04-16T09:29:35.189Z,94656.00
2023-04-16T09:30:35.233Z,94656.00
2023-04-16T09:31:35.283Z,94656.00
2023-04-16T09:32:35.331Z,94656.00
2023-04-16T09:33:35.304Z,94658.00
2023-04-16T09:34:35.314Z,94654.00
2023-04-16T09:35:35.378Z,94654.00
2023-04-16T09:36:35.400Z,94654.00
2023-04-16T09:37:35.414Z,94652.00
2023-04-16T09:38:35.431Z,94652.00
2023-04-16T09:39:35.462Z,94652.00
2023-04-16T09:40:35.514Z,94652.00
2023-04-16T09:41:35.531Z,94652.00
2023-04-16T09:42:35.549Z,94652.00
2023-04-16T09:43:35.578Z,94650.00
2023-04-16T09:44:35.624Z,94650.00
2023-04-16T09:45:35.681Z,94652.00
2023-04-16T09:46:35.661Z,94650.00
2023-04-16T09:47:35.744Z,94650.00
2023-04-16T09:48:35.720Z,94650.00
2023-04-16T09:49:35.766Z,94650.00
2023-04-16T09:50:35.819Z,94652.00
2023-04-16T09:51:35.818Z,94654.00
2023-04-16T09:52:35.831Z,94652.00
2023-04-16T09:53:35.869Z,94650.00
2023-04-16T09:54:35.910Z,94656.00
2023-04-16T09:55:35.940Z,94654.00
2023-04-16T09:56:35.954Z,94650.00
2023-04-16T09:57:35.974Z,94650.00
2023-04-16T09:58:36.006Z,94650.00
2023-04-16T09:59:36.035Z,94648.00
2023-04-16T10:00:36.079Z,94652.00
2023-04-16T10:01:37.157Z,94652.00
2023-04-16T10:02:36.135Z,94650.00
2023-04-16T10:03:36.318Z,94650.00
2023-04-16T10:04:36.087Z,94650.00
2023-04-16T10:05:36.022Z,94647.00
2023-04-16T10:06:36.024Z,94650.00
2023-04-16T10:07:36.025Z,94650.00
2023-04-16T10:08:36.045Z,94650.00
2023-04-16T10:09:35.995Z,94648.00
2023-04-16T10:10:35.989Z,94648.00
2023-04-16T10:11:36.000Z,94648.00
2023-04-16T10:12:35.982Z,94645.00
2023-04-16T10:13:35.960Z,94645.00
2023-04-16T10:14:35.964Z,94645.00
2023-04-16T10:15:35.950Z,94643.00
2023-04-16T10:16:35.975Z,94645.00
2023-04-16T10:17:35.993Z,94641.00
2023-04-16T10:18:35.954Z,94641.00
2023-04-16T10:19:35.916Z,94637.00
2023-04-16T10:20:35.905Z,94639.00
2023-04-16T10:21:35.897Z,94635.00
2023-04-16T10:22:35.931Z,94637.00
2023-04-16T10:23:35.924Z,94635.00
2023-04-16T10:24:35.970Z,94635.00
2023-04-16T10:25:35.985Z,94633.00
2023-04-16T10:26:35.986Z,94637.00
2023-04-16T10:27:36.010Z,94633.00
2023-04-16T10:28:36.017Z,94623.00
2023-04-16T10:29:36.045Z,94621.00
2023-04-16T10:30:36.110Z,94621.00
2023-04-16T10:31:36.062Z,94621.00
2023-04-16T10:32:36.108Z,94625.00
2023-04-16T10:33:36.130Z,94625.00
2023-04-16T10:34:36.108Z,94625.00
2023-04-16T10:35:36.133Z,94625.00
2023-04-16T10:36:36.159Z,94625.00
2023-04-16T10:37:36.172Z,94621.00
2023-04-16T10:38:36.199Z,94623.00
2023-04-16T10:39:36.214Z,94625.00
2023-04-16T10:40:36.242Z,94633.00
2023-04-16T10:41:36.281Z,94633.00
2023-04-16T10:42:36.254Z,94635.00
2023-04-16T10:43:36.297Z,94635.00
2023-04-16T10:44:36.310Z,94635.00
2023-04-16T10:45:36.319Z,94635.00
2023-04-16T10:46:36.458Z,94635.00
2023-04-16T10:47:36.443Z,94633.00
2023-04-16T10:48:48.788Z,94625.00
2023-04-16T10:49:37.417Z,94633.00
2023-04-16T10:50:36.374Z,94635.00
2023-04-16T10:51:36.414Z,94625.00
2023-04-16T10:52:36.335Z,94625.00
2023-04-16T10:53:36.350Z,94625.00
2023-04-16T10:54:36.342Z,94625.00
2023-04-16T10:55:36.342Z,94625.00
2023-04-16T10:56:36.330Z,94625.00
2023-04-16T10:57:36.320Z,94633.00
2023-04-16T10:58:36.317Z,94621.00
2023-04-16T10:59:36.313Z,94625.00
2023-04-16T11:00:36.305Z,94625.00
2023-04-16T11:01:36.354Z,94623.00
2023-04-16T11:02:36.347Z,94619.00
2023-04-16T11:03:36.487Z,94619.00
2023-04-16T11:04:36.413Z,94619.00
2023-04-16T11:05:36.264Z,94621.00
2023-04-16T11:06:36.265Z,94617.00
2023-04-16T11:07:36.250Z,94615.00
2023-04-16T11:08:44.258Z,94615.00
2023-04-16T11:09:37.261Z,94609.00
2023-04-16T11:10:36.214Z,94613.00
2023-04-16T11:11:36.225Z,94613.00
2023-04-16T11:12:36.240Z,94609.00
2023-04-16T11:13:36.214Z,94611.00
2023-04-16T11:14:36.187Z,94615.00
2023-04-16T11:15:36.276Z,94613.00
2023-04-16T11:16:36.161Z,94613.00
2023-04-16T11:17:36.209Z,94619.00
2023-04-16T11:18:36.161Z,94617.00
2023-04-16T11:19:37.183Z,94617.00
2023-04-16T11:20:36.141Z,94623.00
2023-04-16T11:21:36.134Z,94621.00
2023-04-16T11:22:36.602Z,94621.00
2023-04-16T11:23:36.187Z,94621.00
2023-04-16T11:24:36.146Z,94621.00
2023-04-16T11:25:36.163Z,94625.00
2023-04-16T11:26:36.116Z,94621.00
2023-04-16T11:27:36.106Z,94623.00
2023-04-16T11:28:36.082Z,94623.00
2023-04-16T11:29:36.099Z,94621.00
2023-04-16T11:30:36.077Z,94621.00
2023-04-16T11:31:36.161Z,94621.00
2023-04-16T11:32:36.087Z,94623.00
2023-04-16T11:33:36.074Z,94633.00
2023-04-16T11:34:36.046Z,94633.00
2023-04-16T11:35:36.090Z,94633.00
2023-04-16T11:36:36.039Z,94633.00
2023-04-16T11:37:36.045Z,94625.00
2023-04-16T11:38:36.021Z,94635.00
2023-04-16T11:39:36.026Z,94637.00
2023-04-16T11:40:36.019Z,94635.00
2023-04-16T11:41:36.019Z,94639.00
2023-04-16T11:42:36.055Z,94637.00
2023-04-16T11:43:35.990Z,94637.00
2023-04-16T11:44:36.005Z,94635.00